Time;durP1;ratioP1;P1;durP2;ratioP2;P2;SDS_P1;SDS_P2;PMS_P1;PMS_P2;Temp;Humidity;BMP_temperature;BMP_pressure;BME280_temperature;BME280_humidity;BME280_pressure;Samples;Min_cycle;Max_cycle;Signal;HPM_P1;HPM_P2
2022/11/27 00:01:19;;;;;;;1.77;1.30;;;;;;;6.53;93.84;102514.97;5096909;27;97089;-31
2022/11/27 00:03:45;;;;;;;2.10;1.60;;;;;;;6.54;94.03;102515.84;5096887;27;96449;-31
2022/11/27 00:06:16;;;;;;;2.22;1.23;;;;;;;6.55;93.82;102504.16;5078589;27;96933;-31
2022/11/27 00:08:43;;;;;;;2.45;1.45;;;;;;;6.54;93.78;102491.63;5096230;27;99870;-32
2022/11/27 00:11:15;;;;;;;2.33;1.30;;;;;;;6.54;94.13;102481.75;5077759;27;101441;-31
2022/11/27 00:13:41;;;;;;;3.83;1.90;;;;;;;6.54;93.67;102475.47;5077178;27;96680;-31
2022/11/27 00:16:07;;;;;;;6.25;2.88;;;;;;;6.52;93.78;102474.63;5096757;27;96692;-31
2022/11/27 00:18:33;;;;;;;2.05;1.13;;;;;;;6.52;93.83;102482.69;5077463;27;101219;-31
2022/11/27 00:21:04;;;;;;;4.05;1.95;;;;;;;6.49;93.85;102472.00;5095481;27;99193;-32
2022/11/27 00:23:31;;;;;;;1.13;0.95;;;;;;;6.51;93.83;102476.44;5076907;27;96530;-31
2022/11/27 00:25:56;;;;;;;4.45;1.38;;;;;;;6.48;93.85;102464.81;5077649;27;96881;-31
2022/11/27 00:28:22;;;;;;;2.97;1.25;;;;;;;6.47;93.66;102458.53;5096008;27;104988;-31
2022/11/27 00:30:47;;;;;;;4.57;1.70;;;;;;;6.48;93.97;102459.44;5096291;27;106780;-31
2022/11/27 00:33:12;;;;;;;3.20;1.20;;;;;;;6.46;93.68;102456.78;5096171;27;96505;-31
2022/11/27 00:35:38;;;;;;;1.73;1.20;;;;;;;6.44;93.90;102445.16;5096342;27;96737;-32
2022/11/27 00:38:04;;;;;;;1.67;1.00;;;;;;;6.46;93.88;102450.50;5076756;27;100779;-31
2022/11/27 00:40:29;;;;;;;1.60;0.88;;;;;;;6.43;94.08;102447.88;5095755;27;98967;-31
2022/11/27 00:42:54;;;;;;;3.38;1.55;;;;;;;6.44;93.83;102447.84;5095813;27;102016;-31
2022/11/27 00:45:20;;;;;;;3.97;1.55;;;;;;;6.44;93.70;102441.59;5095900;27;96871;-31
2022/11/27 00:47:45;;;;;;;1.25;0.88;;;;;;;6.46;93.85;102437.03;5095754;27;98866;-31
2022/11/27 00:50:10;;;;;;;1.63;0.80;;;;;;;6.45;93.68;102435.28;5095948;27;97696;-32
2022/11/27 00:52:36;;;;;;;5.85;1.92;;;;;;;6.46;93.70;102443.31;5095827;27;96566;-31
2022/11/27 00:55:01;;;;;;;2.88;1.02;;;;;;;6.46;93.77;102447.78;5095850;27;104136;-31
2022/11/27 00:57:26;;;;;;;5.43;1.80;;;;;;;6.48;93.38;102451.34;5095069;27;121509;-31
2022/11/27 00:59:51;;;;;;;1.42;0.70;;;;;;;6.49;93.57;102442.38;5095278;27;114322;-31
2022/11/27 01:02:17;;;;;;;3.05;1.20;;;;;;;6.50;93.65;102428.88;5094556;27;113395;-31
2022/11/27 01:04:46;;;;;;;1.00;0.75;;;;;;;6.49;93.49;102435.19;5095402;27;103743;-31
2022/11/27 01:07:12;;;;;;;3.17;1.10;;;;;;;6.49;93.47;102439.69;5076836;27;101434;-31
2022/11/27 01:09:37;;;;;;;1.77;0.77;;;;;;;6.48;93.58;102438.78;5095495;27;99219;-31
2022/11/27 01:12:03;;;;;;;4.40;1.48;;;;;;;6.44;93.27;102425.44;5095688;27;96674;-32
2022/11/27 01:14:28;;;;;;;3.55;0.88;;;;;;;6.49;93.28;102428.91;5095972;27;96835;-31
2022/11/27 01:16:53;;;;;;;2.40;1.00;;;;;;;6.49;93.43;102428.91;5095512;27;97569;-31
2022/11/27 01:19:19;;;;;;;1.15;0.98;;;;;;;6.51;93.50;102424.41;5094427;27;112009;-32
2022/11/27 01:21:45;;;;;;;3.70;1.25;;;;;;;6.49;93.31;102420.84;5095767;27;96600;-32
2022/11/27 01:24:12;;;;;;;5.50;1.23;;;;;;;6.48;93.24;102417.25;5095831;27;96860;-31
2022/11/27 01:26:37;;;;;;;3.75;1.20;;;;;;;6.49;92.89;102419.03;5076524;27;100837;-31
2022/11/27 01:29:03;;;;;;;1.10;0.88;;;;;;;6.52;93.19;102404.63;5095074;27;98713;-31
2022/11/27 01:31:30;;;;;;;2.67;1.10;;;;;;;6.49;93.25;102397.50;5095717;27;96560;-31
2022/11/27 01:34:01;;;;;;;1.55;1.05;;;;;;;6.49;92.87;102393.94;5077171;27;96813;-32
2022/11/27 01:36:28;;;;;;;1.57;0.87;;;;;;;6.50;93.05;102393.00;5080049;27;101070;-31
2022/11/27 01:38:53;;;;;;;2.03;0.60;;;;;;;6.49;92.66;102375.09;5080105;27;101301;-31
2022/11/27 01:41:24;;;;;;;3.65;1.05;;;;;;;6.52;92.82;102391.16;5099244;27;96543;-31
2022/11/27 01:43:59;;;;;;;2.50;0.95;;;;;;;6.50;92.68;102382.22;5080654;27;96837;-31
2022/11/27 01:46:38;;;;;;;3.35;0.88;;;;;;;6.52;92.72;102375.00;5080087;27;101500;-32
2022/11/27 01:49:09;;;;;;;3.05;1.45;;;;;;;6.52;92.60;102367.81;5079929;27;99134;-31
2022/11/27 01:51:43;;;;;;;2.77;1.03;;;;;;;6.52;92.43;102364.25;5098915;27;96545;-31
2022/11/27 01:54:09;;;;;;;2.65;1.25;;;;;;;6.52;92.43;102358.84;5080207;27;96845;-31
2022/11/27 01:56:37;;;;;;;4.78;0.90;;;;;;;6.49;92.53;102353.56;5098626;27;97346;-31
2022/11/27 01:59:03;;;;;;;5.70;1.38;;;;;;;6.48;92.42;102351.75;5079780;27;101311;-32
2022/11/27 02:01:28;;;;;;;0.88;0.80;;;;;;;6.51;92.67;102365.19;5080064;27;96557;-31
2022/11/27 02:03:57;;;;;;;1.73;1.13;;;;;;;6.49;92.52;102348.16;5097721;27;115277;-31
2022/11/27 02:06:24;;;;;;;2.05;0.82;;;;;;;6.48;92.41;102343.69;5079620;27;101303;-31
2022/11/27 02:08:49;;;;;;;1.63;0.88;;;;;;;6.47;92.36;102339.22;5079890;27;101138;-31
2022/11/27 02:11:39;;;;;;;1.88;1.02;;;;;;;6.47;92.12;102337.41;5098987;27;96705;-31
2022/11/27 02:14:15;;;;;;;0.55;0.55;;;;;;;6.48;92.14;102335.59;5079790;27;96774;-31
2022/11/27 02:16:58;;;;;;;4.90;1.08;;;;;;;6.51;92.38;102349.03;5079194;27;101587;-31
2022/11/27 02:19:36;;;;;;;2.28;1.05;;;;;;;6.52;92.08;102358.84;5078443;27;100495;-31
2022/11/27 02:22:17;;;;;;;0.90;0.90;;;;;;;6.50;92.17;102340.03;5098141;27;96854;-31
2022/11/27 02:25:30;;;;;;;2.15;1.10;;;;;;;6.56;91.97;102347.13;5079837;27;96745;-31
2022/11/27 02:28:14;;;;;;;2.05;0.70;;;;;;;6.54;91.88;102346.25;5023422;27;99581;-32
2022/11/27 02:30:45;;;;;;;2.13;0.93;;;;;;;6.51;91.67;102338.25;5098248;27;97826;-32
2022/11/27 02:33:14;;;;;;;3.13;1.33;;;;;;;6.52;91.80;102348.97;5079599;27;96618;-31
2022/11/27 02:35:51;;;;;;;8.20;0.90;;;;;;;6.55;91.78;102350.72;5079936;27;96675;-31
2022/11/27 02:38:27;;;;;;;2.35;1.00;;;;;;;6.55;91.59;102350.72;5079111;27;100829;-31
2022/11/27 02:41:07;;;;;;;1.10;0.80;;;;;;;6.55;91.26;102358.78;5079068;27;100713;-31
2022/11/27 02:43:37;;;;;;;2.67;0.90;;;;;;;6.55;91.73;102348.03;5078850;27;96722;-32
2022/11/27 02:46:05;;;;;;;3.13;1.05;;;;;;;6.56;91.49;102348.00;5078761;27;97314;-31
2022/11/27 02:48:35;;;;;;;3.53;0.70;;;;;;;6.55;91.41;102330.09;5078913;27;99410;-31
2022/11/27 02:51:04;;;;;;;2.47;0.85;;;;;;;6.55;91.38;102330.09;5078687;27;100918;-32
2022/11/27 02:53:41;;;;;;;1.70;0.63;;;;;;;6.56;91.27;102318.38;5079119;27;96721;-31
2022/11/27 02:56:11;;;;;;;2.72;0.80;;;;;;;6.55;91.17;102323.78;5079291;27;96746;-32
2022/11/27 02:58:37;;;;;;;3.75;1.88;;;;;;;6.54;91.35;102314.84;5078949;27;101004;-31
2022/11/27 03:01:05;;;;;;;3.83;1.63;;;;;;;6.56;91.17;102333.66;5079199;27;100667;-31
2022/11/27 03:03:36;;;;;;;1.58;0.93;;;;;;;6.56;91.15;102326.47;5078931;27;96612;-32
2022/11/27 03:06:07;;;;;;;0.77;0.52;;;;;;;6.56;91.11;102329.16;5079089;27;96524;-31
2022/11/27 03:08:58;;;;;;;1.73;1.10;;;;;;;6.60;90.90;102343.41;5097086;27;98117;-31
2022/11/27 03:11:25;;;;;;;2.17;1.02;;;;;;;6.57;90.85;102330.03;5084700;27;99344;-31
2022/11/27 03:13:54;;;;;;;2.17;1.05;;;;;;;6.57;90.92;102332.72;5078727;27;96803;-31
2022/11/27 03:16:25;;;;;;;1.55;0.75;;;;;;;6.59;90.70;102337.16;5078817;27;96894;-31
2022/11/27 03:19:15;;;;;;;0.82;0.50;;;;;;;6.59;90.38;102334.47;5078165;27;99316;-31
2022/11/27 03:22:00;;;;;;;1.05;0.55;;;;;;;6.64;90.67;102330.81;5097351;27;97895;-31
2022/11/27 03:24:28;;;;;;;3.25;1.25;;;;;;;6.61;90.53;102320.97;5078581;27;96660;-32
2022/11/27 03:26:54;;;;;;;0.52;0.52;;;;;;;6.61;90.47;102320.09;5079079;27;96910;-31
2022/11/27 03:29:24;;;;;;;0.75;0.60;;;;;;;6.61;90.47;102323.69;5078326;27;101166;-31
2022/11/27 03:31:50;;;;;;;1.50;0.82;;;;;;;6.61;90.53;102326.38;5078433;27;99107;-31
2022/11/27 03:34:16;;;;;;;2.75;1.02;;;;;;;6.61;89.97;102320.09;5096757;27;96637;-31
2022/11/27 03:36:41;;;;;;;2.00;1.33;;;;;;;6.61;90.04;102320.09;5097077;27;96859;-31
2022/11/27 03:39:07;;;;;;;3.30;1.30;;;;;;;6.63;90.16;102318.28;5096550;27;99160;-32
2022/11/27 03:41:51;;;;;;;2.25;1.00;;;;;;;6.63;90.07;102332.63;5078119;27;101141;-31
2022/11/27 03:45:11;;;;;;;0.80;0.70;;;;;;;6.64;90.21;102326.28;5097334;27;96665;-31
2022/11/27 03:48:00;;;;;;;0.63;0.45;;;;;;;6.66;89.88;102321.78;4993403;28;96633;-31
2022/11/27 03:50:40;;;;;;;0.45;0.30;;;;;;;6.66;90.14;102323.56;5078151;27;101231;-31
2022/11/27 03:53:23;;;;;;;3.38;0.85;;;;;;;6.65;89.71;102321.78;5078273;27;101320;-31
2022/11/27 03:55:58;;;;;;;3.72;1.13;;;;;;;6.67;89.93;102323.53;5078192;27;96755;-31
2022/11/27 03:58:35;;;;;;;0.63;0.60;;;;;;;6.66;89.88;102302.03;5077356;27;96574;-31
2022/11/27 04:01:03;;;;;;;1.42;0.75;;;;;;;6.68;90.14;102319.06;5077596;27;101082;-31
2022/11/27 04:03:29;;;;;;;3.40;1.02;;;;;;;6.68;89.98;102316.38;5077723;27;100800;-31
2022/11/27 04:05:55;;;;;;;1.80;0.68;;;;;;;6.67;89.64;102314.56;5096960;27;96441;-31
2022/11/27 04:08:21;;;;;;;4.32;1.13;;;;;;;6.65;89.59;102306.53;5078009;27;96580;-31
2022/11/27 04:10:47;;;;;;;2.03;0.75;;;;;;;6.68;89.27;102298.41;5077600;27;100752;-31
2022/11/27 04:13:13;;;;;;;1.38;0.75;;;;;;;6.69;89.76;102308.22;5077379;27;101363;-31
2022/11/27 04:15:38;;;;;;;3.70;1.08;;;;;;;6.68;89.91;102303.78;5077918;27;96567;-31
2022/11/27 04:18:04;;;;;;;1.17;0.43;;;;;;;6.67;89.61;102299.28;5096713;27;96807;-31
2022/11/27 04:20:29;;;;;;;1.55;0.52;;;;;;;6.69;90.48;102301.97;5095613;27;97925;-31
2022/11/27 04:22:55;;;;;;;1.70;0.55;;;;;;;6.67;90.43;102302.00;5096035;27;105366;-31
2022/11/27 04:25:20;;;;;;;2.35;1.38;;;;;;;6.64;90.42;102296.69;5096140;27;96743;-31
2022/11/27 04:27:46;;;;;;;2.45;1.55;;;;;;;6.65;90.93;102306.53;5096308;27;96657;-31
2022/11/27 04:30:12;;;;;;;2.03;0.93;;;;;;;6.63;91.22;102308.38;5095833;27;99407;-31
2022/11/27 04:32:38;;;;;;;3.35;0.82;;;;;;;6.62;91.18;102298.50;5096115;27;98060;-31
2022/11/27 04:35:04;;;;;;;6.35;0.90;;;;;;;6.61;91.57;102293.19;5096597;27;96682;-31
2022/11/27 04:37:29;;;;;;;4.90;1.73;;;;;;;6.59;91.71;102299.47;5077365;27;96843;-31
2022/11/27 04:39:54;;;;;;;0.45;0.40;;;;;;;6.57;91.61;102289.66;5095677;27;110827;-31
2022/11/27 04:42:20;;;;;;;4.50;0.80;;;;;;;6.57;92.10;102281.56;5096081;27;99450;-31
2022/11/27 04:44:45;;;;;;;0.85;0.47;;;;;;;6.55;92.23;102284.31;5077777;27;96632;-32
2022/11/27 04:47:10;;;;;;;4.28;0.70;;;;;;;6.56;92.40;102277.13;5096420;27;96868;-32
2022/11/27 04:49:35;;;;;;;1.42;0.47;;;;;;;6.50;92.25;102279.94;5094905;27;117405;-31
2022/11/27 04:52:01;;;;;;;0.40;0.30;;;;;;;6.48;92.62;102271.88;5095803;27;97888;-31
2022/11/27 04:54:26;;;;;;;1.55;0.50;;;;;;;6.50;92.40;102266.47;5096138;27;96519;-31
2022/11/27 04:56:51;;;;;;;4.97;1.13;;;;;;;6.49;92.45;102270.09;5095487;27;109294;-31
2022/11/27 04:59:17;;;;;;;2.05;0.95;;;;;;;6.48;92.55;102273.69;5095232;27;112537;-31
2022/11/27 05:01:42;;;;;;;2.05;0.95;;;;;;;6.49;92.62;102264.72;5095688;27;97263;-31
2022/11/27 05:04:07;;;;;;;0.60;0.40;;;;;;;6.50;92.92;102259.28;5095665;27;96650;-31
2022/11/27 05:06:33;;;;;;;0.85;0.70;;;;;;;6.50;92.84;102258.41;5096195;27;96794;-31
2022/11/27 05:09:00;;;;;;;1.02;0.80;;;;;;;6.49;92.91;102253.97;5095856;27;97454;-31
2022/11/27 05:11:27;;;;;;;1.20;0.57;;;;;;;6.45;92.97;102250.44;5080523;27;100910;-31
2022/11/27 05:14:13;;;;;;;0.50;0.43;;;;;;;6.50;92.83;102255.72;5080290;27;96925;-31
2022/11/27 05:16:38;;;;;;;0.38;0.22;;;;;;;6.47;93.11;102255.78;5099168;27;96786;-31
2022/11/27 05:19:04;;;;;;;1.38;0.73;;;;;;;6.47;93.05;102247.72;5098489;27;97873;-31
2022/11/27 05:21:29;;;;;;;2.28;1.15;;;;;;;6.46;93.11;102248.63;5080328;27;98673;-31
2022/11/27 05:23:54;;;;;;;2.33;0.73;;;;;;;6.46;93.14;102245.94;5098680;27;100184;-31
2022/11/27 05:26:20;;;;;;;0.88;0.55;;;;;;;6.45;92.85;102249.56;5099352;27;96791;-31
2022/11/27 05:28:45;;;;;;;1.08;0.88;;;;;;;6.42;92.81;102238.88;5098630;27;111729;-31
2022/11/27 05:31:10;;;;;;;1.05;0.65;;;;;;;6.43;93.11;102237.94;5080495;27;113153;-31
2022/11/27 05:33:35;;;;;;;0.95;0.60;;;;;;;6.38;93.05;102225.44;5080340;27;96526;-31
2022/11/27 05:36:01;;;;;;;0.85;0.38;;;;;;;6.43;93.33;102237.94;5098721;27;105542;-31
2022/11/27 05:38:26;;;;;;;2.53;0.75;;;;;;;6.36;93.19;102218.31;5097853;27;108893;-31
2022/11/27 05:40:51;;;;;;;0.22;0.20;;;;;;;6.37;92.91;102221.00;5098196;27;114572;-31
2022/11/27 05:43:17;;;;;;;2.55;0.40;;;;;;;6.37;93.36;102229.06;5098997;27;96580;-31
2022/11/27 05:45:42;;;;;;;3.13;1.00;;;;;;;6.37;93.13;102220.13;5098574;27;101883;-31
2022/11/27 05:48:07;;;;;;;1.20;0.75;;;;;;;6.38;93.34;102222.75;5098530;27;105877;-32
2022/11/27 05:50:32;;;;;;;1.45;0.98;;;;;;;6.36;92.89;102221.94;5079563;27;114356;-31
2022/11/27 05:52:58;;;;;;;0.73;0.55;;;;;;;6.37;93.66;102217.44;5099258;27;96671;-31
2022/11/27 05:55:23;;;;;;;2.65;1.60;;;;;;;6.38;93.29;102216.50;5099459;27;96730;-31
2022/11/27 05:57:48;;;;;;;0.55;0.50;;;;;;;6.33;93.59;102205.84;5098694;27;97978;-31
2022/11/27 06:00:14;;;;;;;1.42;0.40;;;;;;;6.33;93.24;102197.75;5098364;27;98733;-31
2022/11/27 06:02:40;;;;;;;0.57;0.45;;;;;;;6.35;93.40;102204.00;5097939;27;96448;-32
2022/11/27 06:05:05;;;;;;;3.83;0.90;;;;;;;6.34;93.20;102191.47;5098688;27;96730;-32
2022/11/27 06:07:31;;;;;;;0.77;0.55;;;;;;;6.36;93.00;102197.72;5079524;27;101084;-31
2022/11/27 06:09:56;;;;;;;0.60;0.38;;;;;;;6.34;93.08;102191.47;5098443;27;97761;-31
2022/11/27 06:12:21;;;;;;;0.52;0.30;;;;;;;6.38;93.59;102194.97;5098318;27;103963;-31
2022/11/27 06:14:47;;;;;;;4.72;0.90;;;;;;;6.35;93.04;102204.00;5098575;27;97124;-31
2022/11/27 06:17:15;;;;;;;0.63;0.52;;;;;;;6.33;93.75;102197.75;5097981;27;107085;-31
2022/11/27 06:19:41;;;;;;;0.30;0.30;;;;;;;6.36;93.53;102203.09;5097861;27;97810;-31
2022/11/27 06:22:06;;;;;;;0.52;0.47;;;;;;;6.35;93.35;102195.91;5079113;27;96575;-31
2022/11/27 06:24:32;;;;;;;0.32;0.28;;;;;;;6.35;93.59;102186.97;5098427;27;96755;-31
2022/11/27 06:26:57;;;;;;;2.05;0.73;;;;;;;6.34;92.97;102191.47;5096851;27;116646;-31
2022/11/27 06:29:22;;;;;;;1.52;0.77;;;;;;;6.30;93.28;102181.69;5079320;27;98784;-31
2022/11/27 06:31:48;;;;;;;0.98;0.52;;;;;;;6.33;93.14;102176.22;5098403;27;96441;-32
2022/11/27 06:34:13;;;;;;;0.47;0.25;;;;;;;6.34;93.22;102177.09;5098475;27;96693;-31
2022/11/27 06:36:41;;;;;;;1.13;0.55;;;;;;;6.32;92.95;102182.53;5097519;27;108110;-31
2022/11/27 06:39:09;;;;;;;5.15;0.50;;;;;;;6.35;93.08;102184.28;5079073;27;101040;-31
2022/11/27 06:41:34;;;;;;;1.20;0.60;;;;;;;6.32;93.24;102177.16;5079392;27;96526;-31
2022/11/27 06:44:00;;;;;;;1.45;0.82;;;;;;;6.32;93.13;102166.41;5098131;27;96591;-31
2022/11/27 06:46:26;;;;;;;2.45;0.90;;;;;;;6.34;93.21;102161.88;5097401;27;98740;-32
2022/11/27 06:48:53;;;;;;;2.75;0.88;;;;;;;6.35;93.38;102162.75;5098087;27;97323;-32
2022/11/27 06:51:24;;;;;;;2.13;0.85;;;;;;;6.30;93.04;102157.47;5078764;27;96606;-31
2022/11/27 06:53:51;;;;;;;0.32;0.25;;;;;;;6.33;93.00;102159.22;5079241;27;96804;-31
2022/11/27 06:56:19;;;;;;;1.13;0.75;;;;;;;6.29;93.27;102147.66;5097207;27;101221;-31
2022/11/27 06:58:44;;;;;;;0.30;0.22;;;;;;;6.33;93.41;102152.00;5078903;27;101271;-31
2022/11/27 07:01:13;;;;;;;1.58;0.82;;;;;;;6.28;93.51;102144.97;5097767;27;96723;-32
2022/11/27 07:03:38;;;;;;;0.22;0.22;;;;;;;6.27;93.60;102132.41;5079079;27;96880;-32
2022/11/27 07:06:06;;;;;;;1.83;0.60;;;;;;;6.27;93.58;102127.97;5097503;27;97806;-31
2022/11/27 07:08:33;;;;;;;5.30;0.70;;;;;;;6.27;93.72;102127.03;5079219;27;100723;-31
2022/11/27 07:11:06;;;;;;;1.50;0.65;;;;;;;6.26;93.81;102115.41;5078926;27;96615;-31
2022/11/27 07:13:31;;;;;;;2.60;0.88;;;;;;;6.28;94.06;102123.44;5078791;27;96749;-31
2022/11/27 07:16:01;;;;;;;1.50;0.90;;;;;;;6.25;94.16;102126.22;5096602;27;99529;-31
2022/11/27 07:18:27;;;;;;;2.42;0.85;;;;;;;6.25;94.12;102128.91;5078311;27;100969;-31
2022/11/27 07:20:54;;;;;;;1.15;0.28;;;;;;;6.22;93.84;102120.88;5078224;27;96667;-31
2022/11/27 07:23:19;;;;;;;1.80;0.90;;;;;;;6.24;93.83;102125.31;5078843;27;96938;-31
2022/11/27 07:25:44;;;;;;;0.68;0.63;;;;;;;6.25;93.91;102112.78;5097080;27;97834;-31
2022/11/27 07:28:10;;;;;;;1.75;0.73;;;;;;;6.27;94.23;102109.13;5097126;27;97535;-32
2022/11/27 07:30:35;;;;;;;2.05;0.90;;;;;;;6.25;94.29;102107.38;5097704;27;96426;-31
2022/11/27 07:33:00;;;;;;;1.55;0.68;;;;;;;6.25;94.37;102110.09;5097512;27;96737;-31
2022/11/27 07:35:26;;;;;;;1.95;0.63;;;;;;;6.21;94.06;102106.56;5078755;27;97914;-32
2022/11/27 07:37:51;;;;;;;0.30;0.30;;;;;;;6.22;93.88;102108.34;5097001;27;100771;-31
2022/11/27 07:40:17;;;;;;;1.17;0.85;;;;;;;6.23;93.72;102107.41;5096556;27;96443;-31
2022/11/27 07:42:43;;;;;;;2.70;0.82;;;;;;;6.29;94.08;102106.38;5097135;27;96692;-32
2022/11/27 07:45:09;;;;;;;3.30;1.20;;;;;;;6.30;93.60;102105.47;5096441;27;99863;-31
2022/11/27 07:47:34;;;;;;;0.75;0.38;;;;;;;6.29;93.26;102107.28;5078140;27;101113;-31
2022/11/27 07:50:00;;;;;;;1.42;0.93;;;;;;;6.32;93.30;102109.00;5097114;27;96605;-31
2022/11/27 07:52:26;;;;;;;1.17;0.55;;;;;;;6.32;93.32;102104.50;5096815;27;96781;-31
2022/11/27 07:54:51;;;;;;;1.77;0.57;;;;;;;6.33;93.10;102111.66;5096358;27;99224;-31
2022/11/27 07:57:17;;;;;;;1.70;0.77;;;;;;;6.32;93.23;102099.13;5096892;27;98030;-32
2022/11/27 07:59:42;;;;;;;2.17;0.70;;;;;;;6.36;93.12;102099.94;5096761;27;96398;-32
2022/11/27 08:02:11;;;;;;;3.20;1.13;;;;;;;6.37;93.25;102096.34;5096907;27;96763;-31
2022/11/27 08:04:36;;;;;;;1.20;0.35;;;;;;;6.36;92.74;102094.53;5077448;27;100644;-32
2022/11/27 08:07:01;;;;;;;1.23;0.85;;;;;;;6.36;92.63;102094.53;5096458;27;100458;-31
2022/11/27 08:09:29;;;;;;;0.40;0.40;;;;;;;6.38;93.13;102093.59;5096911;27;96446;-31
2022/11/27 08:11:54;;;;;;;1.00;0.68;;;;;;;6.41;93.25;102094.44;5078037;27;96852;-32
2022/11/27 08:14:19;;;;;;;2.13;0.98;;;;;;;6.41;93.07;102083.66;5095974;27;97949;-32
2022/11/27 08:16:45;;;;;;;2.53;0.85;;;;;;;6.40;93.27;102079.22;5096070;27;99162;-31
2022/11/27 08:19:10;;;;;;;3.15;1.45;;;;;;;6.42;93.31;102080.94;5096056;27;96745;-32
2022/11/27 08:21:36;;;;;;;1.52;0.88;;;;;;;6.40;93.59;102080.09;5078282;27;96812;-31
2022/11/27 08:24:01;;;;;;;1.77;0.80;;;;;;;6.42;93.65;102088.16;5095994;27;104909;-31
2022/11/27 08:26:27;;;;;;;2.33;0.98;;;;;;;6.40;93.57;102084.59;5096128;27;97782;-32
2022/11/27 08:28:53;;;;;;;1.08;0.68;;;;;;;6.44;93.81;102094.38;5095964;27;96576;-31
2022/11/27 08:31:19;;;;;;;1.73;0.82;;;;;;;6.44;93.63;102097.06;5077990;27;96896;-31
2022/11/27 08:33:45;;;;;;;1.73;0.63;;;;;;;6.42;93.84;102088.16;5095810;27;99178;-31
2022/11/27 08:36:10;;;;;;;1.38;0.75;;;;;;;6.42;94.00;102089.03;5096118;27;97839;-31
2022/11/27 08:38:36;;;;;;;4.95;0.90;;;;;;;6.40;93.70;102084.59;5096256;27;96553;-31
2022/11/27 08:41:04;;;;;;;0.73;0.55;;;;;;;6.42;94.33;102088.16;5096006;27;96866;-32
2022/11/27 08:43:30;;;;;;;1.13;0.60;;;;;;;6.41;94.08;102084.53;5095586;27;98060;-31
2022/11/27 08:45:56;;;;;;;1.02;0.77;;;;;;;6.42;94.27;102088.16;5077185;27;100954;-31
2022/11/27 08:48:23;;;;;;;2.53;0.85;;;;;;;6.43;94.54;102089.91;5096379;27;96536;-31
2022/11/27 08:50:49;;;;;;;1.77;0.82;;;;;;;6.44;95.01;102095.25;5077441;27;96807;-31
2022/11/27 08:53:15;;;;;;;2.42;0.63;;;;;;;6.43;94.77;102092.59;5095450;27;97310;-31
2022/11/27 08:55:41;;;;;;;4.40;1.50;;;;;;;6.40;94.87;102079.22;5076826;27;100911;-32
2022/11/27 08:58:06;;;;;;;0.88;0.70;;;;;;;6.41;95.11;102094.44;5096063;27;96573;-31
2022/11/27 09:00:33;;;;;;;2.00;0.63;;;;;;;6.40;95.40;102087.28;5096287;27;96763;-31
2022/11/27 09:02:59;;;;;;;2.13;1.08;;;;;;;6.41;95.55;102084.53;5095586;27;98446;-31
2022/11/27 09:05:25;;;;;;;0.93;0.60;;;;;;;6.41;95.24;102073.78;5095356;27;99270;-31
2022/11/27 09:07:50;;;;;;;1.67;0.95;;;;;;;6.42;95.65;102072.00;5096148;27;96604;-31
2022/11/27 09:10:15;;;;;;;1.42;0.60;;;;;;;6.41;95.65;102079.16;5095796;27;96849;-32
2022/11/27 09:12:43;;;;;;;0.95;0.55;;;;;;;6.41;95.52;102073.78;5095436;27;98102;-31
2022/11/27 09:15:09;;;;;;;1.55;0.85;;;;;;;6.45;95.59;102077.31;5076835;27;99288;-31
2022/11/27 09:17:35;;;;;;;4.05;1.30;;;;;;;6.45;95.81;102063.84;5076620;27;96573;-31
2022/11/27 09:20:00;;;;;;;5.82;0.90;;;;;;;6.49;95.69;102077.19;5095418;27;96801;-31
2022/11/27 09:22:26;;;;;;;2.33;1.10;;;;;;;6.48;96.01;102059.25;5095326;27;100126;-31
2022/11/27 09:24:51;;;;;;;2.15;0.80;;;;;;;6.48;95.91;102063.75;5095128;27;97779;-32
2022/11/27 09:27:16;;;;;;;1.52;0.47;;;;;;;6.46;95.99;102054.84;5076985;27;100555;-31
2022/11/27 09:29:42;;;;;;;4.03;0.85;;;;;;;6.48;96.03;102055.69;5095441;27;96804;-31
2022/11/27 09:32:07;;;;;;;0.93;0.68;;;;;;;6.47;96.50;102059.31;5095442;27;97829;-31
2022/11/27 09:34:32;;;;;;;1.55;1.10;;;;;;;6.50;96.27;102056.53;5095577;27;106347;-31
2022/11/27 09:36:57;;;;;;;1.33;0.95;;;;;;;6.51;96.57;102058.31;5095360;27;103513;-31
2022/11/27 09:39:25;;;;;;;2.28;1.00;;;;;;;6.49;96.44;102058.34;5095625;27;96898;-31
2022/11/27 09:41:56;;;;;;;1.85;1.00;;;;;;;6.53;96.45;102060.06;5094425;27;99594;-31
2022/11/27 09:44:47;;;;;;;2.10;1.05;;;;;;;6.52;96.64;102043.94;5076521;27;101000;-31
2022/11/27 09:47:18;;;;;;;2.47;1.13;;;;;;;6.50;96.47;102043.06;5095509;27;96519;-31
2022/11/27 09:49:54;;;;;;;0.70;0.63;;;;;;;6.49;96.44;102035.94;5076915;27;96700;-32
2022/11/27 09:52:32;;;;;;;2.95;0.90;;;;;;;6.52;96.69;102041.22;5076410;27;99309;-31
2022/11/27 09:55:02;;;;;;;3.55;1.42;;;;;;;6.49;96.71;102026.03;5076488;27;100836;-31
2022/11/27 09:57:35;;;;;;;1.70;1.05;;;;;;;6.53;96.66;102030.44;5079161;27;96544;-31
2022/11/27 10:00:05;;;;;;;0.80;0.70;;;;;;;6.55;96.94;102028.59;5080609;27;96689;-31
2022/11/27 10:02:32;;;;;;;2.50;0.75;;;;;;;6.55;97.01;102027.69;5079233;27;103711;-31
2022/11/27 10:05:01;;;;;;;1.25;0.85;;;;;;;6.56;96.79;102024.97;5098146;27;98797;-31
2022/11/27 10:07:42;;;;;;;1.23;0.88;;;;;;;6.60;96.84;102036.53;5079576;27;96696;-31
2022/11/27 10:10:29;;;;;;;2.33;1.33;;;;;;;6.55;96.84;102030.38;5080017;27;96767;-31
2022/11/27 10:13:13;;;;;;;1.80;1.27;;;;;;;6.59;96.59;102035.66;5078984;27;99398;-31
2022/11/27 10:15:54;;;;;;;2.22;1.27;;;;;;;6.62;96.94;102026.59;5079511;27;100796;-31
2022/11/27 10:18:48;;;;;;;2.60;0.93;;;;;;;6.62;96.84;102023.91;5079791;27;96839;-31
2022/11/27 10:21:17;;;;;;;3.20;1.65;;;;;;;6.64;96.98;102023.88;5075370;27;96878;-31
2022/11/27 10:24:03;;;;;;;4.70;1.83;;;;;;;6.64;97.03;102024.75;5077318;27;98312;-31
2022/11/27 10:26:47;;;;;;;1.38;0.95;;;;;;;6.63;97.16;102012.25;5076349;27;101047;-31
2022/11/27 10:29:32;;;;;;;1.73;1.13;;;;;;;6.65;97.07;102014.88;5075999;27;96617;-31
2022/11/27 10:32:03;;;;;;;2.22;1.30;;;;;;;6.68;96.99;102007.59;5075576;27;97230;-32
2022/11/27 10:34:45;;;;;;;3.63;1.77;;;;;;;6.71;96.62;102010.22;5073760;27;101104;-32
2022/11/27 10:37:53;;;;;;;2.13;1.17;;;;;;;6.70;96.81;102005.75;5075902;27;100973;-31
2022/11/27 10:40:24;;;;;;;1.65;1.02;;;;;;;6.71;96.60;101998.56;5027532;27;96798;-31
2022/11/27 10:43:06;;;;;;;2.95;1.33;;;;;;;6.69;96.73;102000.41;5076210;27;96774;-31
2022/11/27 10:45:47;;;;;;;1.55;1.27;;;;;;;6.68;96.73;101998.66;5059109;27;99905;-31
2022/11/27 10:48:13;;;;;;;1.67;0.57;;;;;;;6.69;97.09;101997.72;5074851;27;101035;-31
2022/11/27 10:50:41;;;;;;;3.03;1.48;;;;;;;6.72;96.88;101997.63;5074513;27;96746;-31
2022/11/27 10:53:14;;;;;;;1.58;0.98;;;;;;;6.73;97.06;101991.34;5059612;27;96840;-32
2022/11/27 10:55:53;;;;;;;1.60;0.80;;;;;;;6.72;96.93;101984.16;5058686;27;100820;-31
2022/11/27 10:58:40;;;;;;;3.15;0.70;;;;;;;6.71;96.99;101977.03;5075639;27;100164;-31
2022/11/27 11:01:08;;;;;;;4.15;1.73;;;;;;;6.74;97.32;101977.81;5075396;27;96543;-32
2022/11/27 11:03:34;;;;;;;1.90;1.20;;;;;;;6.77;96.89;101958.03;5076928;27;96773;-31
2022/11/27 11:06:07;;;;;;;2.80;0.80;;;;;;;6.78;96.99;101952.56;5075295;27;101469;-31
2022/11/27 11:08:35;;;;;;;1.35;0.98;;;;;;;6.77;97.13;101953.50;5075092;27;99098;-31
2022/11/27 11:11:07;;;;;;;1.15;0.60;;;;;;;6.77;96.87;101944.56;5058695;27;96610;-32
2022/11/27 11:13:41;;;;;;;0.57;0.55;;;;;;;6.79;97.22;101948.06;5076624;27;96830;-31
2022/11/27 11:16:11;;;;;;;1.48;0.93;;;;;;;6.78;97.25;101947.19;5075342;27;99433;-31
2022/11/27 11:18:49;;;;;;;0.82;0.55;;;;;;;6.78;97.29;101949.00;5076781;27;97316;-31
2022/11/27 11:21:26;;;;;;;2.65;1.33;;;;;;;6.79;97.16;101948.06;5075085;27;96906;-31
2022/11/27 11:24:10;;;;;;;1.85;1.00;;;;;;;6.78;97.31;101936.41;5075421;27;96773;-31
2022/11/27 11:26:49;;;;;;;1.40;0.95;;;;;;;6.80;97.41;101929.19;5074691;27;101291;-32
2022/11/27 11:29:29;;;;;;;2.53;1.33;;;;;;;6.81;97.50;101935.44;5075025;27;101470;-31
2022/11/27 11:31:58;;;;;;;1.63;0.95;;;;;;;6.80;97.63;101926.50;5075145;27;96727;-32
2022/11/27 11:34:29;;;;;;;8.45;1.25;;;;;;;6.77;97.60;101923.91;5075565;27;96886;-31
2022/11/27 11:37:06;;;;;;;2.13;1.20;;;;;;;6.72;97.80;101915.06;5074834;27;101462;-31
2022/11/27 11:39:38;;;;;;;1.67;1.40;;;;;;;6.71;98.08;101910.59;5076539;27;97813;-31
2022/11/27 11:42:09;;;;;;;3.58;1.10;;;;;;;6.74;97.93;101909.63;5075313;27;96627;-31